Accord, New York
Current Conditions -  °F | °C
As of 4:54 AM on Saturday 22 Nov 2014 (Local Time) from KMGJ Reporting Station
Clear Clear  
Wind Chill: -8°   Ceiling: Unl
Heat Index: -8°   Visibility: 10mi
Dew Point: -13°   Wind: 3mph
Humidity: 71%   Direction: 210°SSW
Pressure: 30.43"   Gusts: NA
Location:  41.79°N, 74.23°W
Report Text: KMGJ 220954Z AUTO 21003KT 10SM CLR M08/M13 A3043 RMK AO2 SLP310 T10831128 TSNO
Loading
Personal Weather Stations






























Interactive Weather Map New forecast layout! Learn more

10-Day Weather Forecast

Advertisements
Track Severe Weather on mobile